createdAt,value
2019-06-26T00:00:40.324Z,12.97
2019-06-26T00:03:06.627Z,10.10
2019-06-26T00:05:32.871Z,8.00
2019-06-26T00:07:59.144Z,6.47
2019-06-26T00:10:25.369Z,10.37
2019-06-26T00:12:51.548Z,6.20
2019-06-26T00:15:17.761Z,11.80
2019-06-26T00:17:44.036Z,7.93
2019-06-26T00:20:11.648Z,6.83
2019-06-26T00:22:37.888Z,7.50
2019-06-26T00:25:05.948Z,7.03
2019-06-26T00:27:32.177Z,22.30
2019-06-26T00:29:58.422Z,24.40
2019-06-26T00:32:24.582Z,35.50
2019-06-26T00:34:50.789Z,22.70
2019-06-26T00:37:17.035Z,13.90
2019-06-26T00:39:43.264Z,44.83
2019-06-26T00:42:09.516Z,9.43
2019-06-26T00:44:35.735Z,14.00
2019-06-26T00:47:02.026Z,8.77
2019-06-26T00:49:28.241Z,9.83
2019-06-26T00:51:54.375Z,6.10
2019-06-26T00:54:20.510Z,11.00
2019-06-26T00:56:46.654Z,10.83
2019-06-26T00:59:12.895Z,5.30
2019-06-26T01:01:39.116Z,5.57
2019-06-26T01:04:07.181Z,8.33
2019-06-26T01:06:42.236Z,6.20
2019-06-26T01:09:08.383Z,17.67
2019-06-26T01:11:34.625Z,4.87
2019-06-26T01:14:00.854Z,14.97
2019-06-26T01:16:27.111Z,10.53
2019-06-26T01:18:53.359Z,6.23
2019-06-26T01:21:19.810Z,6.80
2019-06-26T01:23:46.084Z,7.93
2019-06-26T01:26:12.488Z,7.57
2019-06-26T01:28:38.703Z,7.53
2019-06-26T01:31:04.987Z,12.83
2019-06-26T01:33:31.172Z,6.27
2019-06-26T01:35:57.396Z,13.37
2019-06-26T01:38:23.551Z,4.87
2019-06-26T01:40:49.786Z,9.50
2019-06-26T01:43:15.905Z,9.50
2019-06-26T01:45:42.153Z,4.43
2019-06-26T01:48:08.327Z,7.30
2019-06-26T01:50:34.545Z,8.57
2019-06-26T01:53:00.673Z,7.90
2019-06-26T01:55:26.913Z,8.53
2019-06-26T01:57:53.055Z,13.40
2019-06-26T02:00:19.378Z,6.33
2019-06-26T02:02:45.632Z,9.57
2019-06-26T02:05:11.847Z,7.43
2019-06-26T02:07:38.083Z,6.97
2019-06-26T02:10:06.117Z,5.27
2019-06-26T02:12:32.346Z,11.97
2019-06-26T02:14:58.479Z,21.07
2019-06-26T02:17:24.708Z,7.83
2019-06-26T02:19:50.939Z,10.73
2019-06-26T02:22:17.182Z,5.63
2019-06-26T02:24:43.434Z,5.33
2019-06-26T02:27:09.656Z,6.27
2019-06-26T02:29:35.875Z,2.97
2019-06-26T02:32:02.107Z,3.63
2019-06-26T02:34:28.336Z,6.80
2019-06-26T02:36:54.584Z,5.50
2019-06-26T02:39:20.694Z,8.03
2019-06-26T02:41:46.919Z,11.37
2019-06-26T02:44:13.037Z,8.60
2019-06-26T02:46:39.354Z,9.30
2019-06-26T02:49:05.544Z,3.43
2019-06-26T02:51:31.750Z,5.10
2019-06-26T02:53:57.878Z,12.50
2019-06-26T02:56:24.016Z,16.10
2019-06-26T02:58:50.264Z,8.13
2019-06-26T03:01:16.426Z,4.07
2019-06-26T03:03:42.513Z,9.00
2019-06-26T03:06:08.651Z,2.63
2019-06-26T03:08:34.884Z,8.63
2019-06-26T03:11:01.129Z,6.67
2019-06-26T03:13:27.350Z,11.87
2019-06-26T03:15:53.475Z,20.10
2019-06-26T03:18:19.612Z,22.70
2019-06-26T03:20:52.048Z,21.43
2019-06-26T03:23:18.194Z,32.00
2019-06-26T03:25:44.414Z,11.47
2019-06-26T03:28:10.546Z,7.63
2019-06-26T03:30:36.782Z,17.37
2019-06-26T03:33:03.012Z,48.80
2019-06-26T03:35:29.331Z,13.37
2019-06-26T03:37:55.559Z,17.00
2019-06-26T03:40:21.692Z,30.07
2019-06-26T03:42:47.896Z,23.60
2019-06-26T03:45:25.091Z,33.03
2019-06-26T03:47:42.385Z,18.80
2019-06-26T03:50:08.814Z,15.13
2019-06-26T03:52:34.962Z,32.87
2019-06-26T03:55:01.101Z,19.73
2019-06-26T03:57:27.332Z,8.27
2019-06-26T03:59:53.465Z,38.77
2019-06-26T04:02:19.684Z,30.17
2019-06-26T04:04:45.906Z,33.67
2019-06-26T04:07:12.124Z,13.73
2019-06-26T04:09:38.389Z,50.50
2019-06-26T04:12:04.610Z,11.77
2019-06-26T04:14:30.737Z,22.20
2019-06-26T04:16:56.871Z,12.77
2019-06-26T04:19:23.093Z,8.13
2019-06-26T04:21:49.226Z,6.73
2019-06-26T04:24:15.368Z,6.60
2019-06-26T04:26:41.489Z,16.90
2019-06-26T04:29:07.720Z,4.27
2019-06-26T04:31:34.047Z,11.80
2019-06-26T04:34:00.315Z,9.57
2019-06-26T04:36:26.532Z,4.53
2019-06-26T04:38:52.777Z,13.53
2019-06-26T04:41:18.920Z,7.20
2019-06-26T04:43:45.143Z,6.27
2019-06-26T04:46:11.388Z,9.20
2019-06-26T04:48:37.505Z,9.27
2019-06-26T04:51:04.041Z,10.10
2019-06-26T04:53:30.265Z,8.43
2019-06-26T04:55:56.552Z,7.63
2019-06-26T04:58:22.742Z,8.17
2019-06-26T05:00:48.871Z,5.50
2019-06-26T05:03:15.115Z,8.57
2019-06-26T05:05:44.365Z,10.00
2019-06-26T05:08:09.458Z,12.53
2019-06-26T05:10:35.719Z,11.13
2019-06-26T05:13:01.964Z,13.33
2019-06-26T05:15:28.192Z,10.57
2019-06-26T05:17:54.314Z,13.77
2019-06-26T05:20:20.450Z,10.97
2019-06-26T05:22:46.688Z,11.00
2019-06-26T05:25:12.932Z,10.50
2019-06-26T05:27:39.465Z,8.20
2019-06-26T05:30:06.412Z,8.93
2019-06-26T05:32:32.645Z,8.60
2019-06-26T05:34:58.869Z,8.23
2019-06-26T05:37:25.180Z,6.47
2019-06-26T05:39:54.621Z,6.17
2019-06-26T05:42:19.585Z,6.17
2019-06-26T05:44:45.811Z,6.67
2019-06-26T05:47:12.067Z,6.07
2019-06-26T05:49:38.313Z,5.73
2019-06-26T05:52:04.601Z,5.03
2019-06-26T05:54:30.756Z,6.87
2019-06-26T05:56:56.918Z,5.50
2019-06-26T05:59:23.174Z,4.70
2019-06-26T06:01:49.991Z,4.73
2019-06-26T06:04:16.246Z,7.43
2019-06-26T06:06:42.506Z,5.70
2019-06-26T06:09:08.726Z,3.93
2019-06-26T06:11:34.851Z,2.57
2019-06-26T06:14:01.007Z,5.07
2019-06-26T06:16:27.224Z,3.80
2019-06-26T06:18:53.504Z,3.07
2019-06-26T06:21:19.718Z,4.30
2019-06-26T06:23:45.969Z,3.47
2019-06-26T06:26:12.255Z,2.30
2019-06-26T06:28:38.552Z,2.20
2019-06-26T06:31:04.796Z,2.33
2019-06-26T06:33:31.130Z,4.10
2019-06-26T06:35:57.359Z,1.67
2019-06-26T06:38:23.610Z,3.27
2019-06-26T06:40:49.743Z,2.50
2019-06-26T06:43:15.896Z,2.00
2019-06-26T06:45:42.245Z,1.90
2019-06-26T06:48:08.466Z,3.90
2019-06-26T06:50:34.652Z,2.30
2019-06-26T06:53:00.868Z,2.47
2019-06-26T06:55:27.086Z,2.00
2019-06-26T06:57:53.334Z,2.55
2019-06-26T07:00:20.675Z,2.85
2019-06-26T07:02:46.984Z,2.62
2019-06-26T07:05:13.526Z,2.60
2019-06-26T07:07:39.749Z,1.40
2019-06-26T07:10:06.281Z,2.17
2019-06-26T07:12:32.525Z,1.40
2019-06-26T07:14:58.782Z,1.60
2019-06-26T07:17:25.015Z,2.45
2019-06-26T07:19:51.179Z,1.37
2019-06-26T07:22:17.407Z,1.70
2019-06-26T07:24:43.667Z,1.63
2019-06-26T07:27:09.882Z,1.50
2019-06-26T07:29:36.014Z,1.02
2019-06-26T07:32:02.281Z,2.52
2019-06-26T07:34:28.497Z,2.35
2019-06-26T07:36:54.741Z,0.80
2019-06-26T07:39:21.322Z,1.47
2019-06-26T07:41:47.504Z,1.00
2019-06-26T07:44:13.743Z,1.65
2019-06-26T07:46:39.922Z,1.30
2019-06-26T07:49:06.042Z,0.90
2019-06-26T07:51:32.303Z,2.33
2019-06-26T07:53:58.583Z,2.70
2019-06-26T07:56:24.868Z,3.12
2019-06-26T07:58:51.052Z,1.12
2019-06-26T08:01:17.289Z,1.07
2019-06-26T08:03:43.532Z,1.60
2019-06-26T08:06:09.670Z,1.77
2019-06-26T08:08:35.928Z,1.70
2019-06-26T08:11:06.185Z,1.52
2019-06-26T08:13:30.221Z,1.45
2019-06-26T08:15:56.463Z,2.50
2019-06-26T08:18:22.694Z,1.22
2019-06-26T08:21:07.212Z,2.00
2019-06-26T08:23:17.197Z,2.55
2019-06-26T08:25:43.420Z,1.52
2019-06-26T08:28:09.680Z,3.20
2019-06-26T08:30:35.909Z,1.30
2019-06-26T08:33:02.069Z,1.92
2019-06-26T08:35:28.325Z,1.70
2019-06-26T08:38:09.030Z,1.77
2019-06-26T08:40:22.715Z,1.35
2019-06-26T08:42:48.997Z,1.40
2019-06-26T08:45:15.387Z,1.92
2019-06-26T08:47:41.524Z,1.32
2019-06-26T08:50:08.476Z,0.90
2019-06-26T08:52:35.011Z,1.52
2019-06-26T08:55:01.341Z,0.88
2019-06-26T08:57:27.531Z,1.57
2019-06-26T08:59:53.781Z,1.32
2019-06-26T09:02:20.042Z,3.45
2019-06-26T09:04:46.283Z,2.55
2019-06-26T09:07:12.427Z,1.20
2019-06-26T09:09:38.767Z,1.22
2019-06-26T09:12:05.048Z,2.42
2019-06-26T09:14:31.297Z,1.47
2019-06-26T09:16:57.569Z,1.30
2019-06-26T09:19:23.856Z,3.72
2019-06-26T09:21:50.037Z,1.27
2019-06-26T09:24:16.353Z,1.07
2019-06-26T09:26:42.587Z,2.10
2019-06-26T09:29:08.842Z,2.67
2019-06-26T09:31:34.985Z,1.20
2019-06-26T09:34:01.105Z,1.60
2019-06-26T09:36:27.344Z,1.55
2019-06-26T09:38:57.685Z,1.00
2019-06-26T09:41:21.775Z,1.37
2019-06-26T09:43:47.918Z,1.62
2019-06-26T09:46:15.411Z,2.30
2019-06-26T09:48:52.253Z,2.60
2019-06-26T09:51:09.654Z,1.20
2019-06-26T09:53:46.439Z,2.20
2019-06-26T09:56:03.941Z,1.57
2019-06-26T09:58:30.191Z,2.08
2019-06-26T10:00:56.326Z,3.13
2019-06-26T10:03:22.561Z,1.05
2019-06-26T10:05:48.804Z,2.10
2019-06-26T10:08:15.033Z,1.90
2019-06-26T10:10:41.350Z,1.57
2019-06-26T10:13:07.946Z,0.70
2019-06-26T10:15:34.253Z,1.40
2019-06-26T10:18:00.525Z,1.35
2019-06-26T10:20:26.713Z,1.40
2019-06-26T10:22:53.004Z,0.93
2019-06-26T10:25:21.067Z,1.00
2019-06-26T10:27:50.219Z,3.27
2019-06-26T10:30:16.865Z,1.00
2019-06-26T10:32:43.750Z,2.10
2019-06-26T10:35:10.143Z,1.47
2019-06-26T10:37:36.398Z,0.70
2019-06-26T10:40:03.248Z,1.07
2019-06-26T10:42:29.501Z,1.62
2019-06-26T10:44:55.630Z,0.93
2019-06-26T10:47:21.767Z,1.53
2019-06-26T10:49:47.907Z,0.90
2019-06-26T10:52:14.267Z,1.20
2019-06-26T10:54:44.202Z,1.00
2019-06-26T10:57:08.635Z,1.37
2019-06-26T10:59:34.801Z,1.47
2019-06-26T11:02:01.031Z,1.93
2019-06-26T11:04:27.259Z,1.73
2019-06-26T11:06:53.399Z,1.00
2019-06-26T11:09:19.631Z,0.77
2019-06-26T11:11:45.791Z,1.37
2019-06-26T11:14:12.025Z,0.90
2019-06-26T11:16:38.191Z,0.63
2019-06-26T11:19:04.428Z,0.77
2019-06-26T11:21:30.667Z,1.10
2019-06-26T11:23:56.817Z,1.67
2019-06-26T11:26:22.941Z,1.17
2019-06-26T11:28:49.095Z,1.23
2019-06-26T11:31:15.320Z,1.57
2019-06-26T11:33:41.563Z,1.07
2019-06-26T11:36:07.694Z,2.13
2019-06-26T11:38:33.829Z,2.60
2019-06-26T11:41:01.912Z,1.97
2019-06-26T11:43:28.105Z,1.30
2019-06-26T11:45:54.333Z,0.83
2019-06-26T11:48:20.605Z,0.70
2019-06-26T11:50:46.740Z,1.27
2019-06-26T11:53:13.035Z,1.77
2019-06-26T11:55:39.374Z,1.13
2019-06-26T11:58:05.499Z,1.33
2019-06-26T12:00:31.746Z,1.33
2019-06-26T12:02:57.974Z,1.67
2019-06-26T12:05:24.606Z,2.63
2019-06-26T12:07:50.833Z,2.53
2019-06-26T12:10:18.461Z,1.50
2019-06-26T12:12:44.830Z,5.03
2019-06-26T12:15:12.672Z,1.53
2019-06-26T12:17:38.893Z,1.83
2019-06-26T12:20:17.765Z,1.87
2019-06-26T12:22:33.565Z,2.33
2019-06-26T12:24:59.835Z,2.20
2019-06-26T12:27:26.057Z,1.63
2019-06-26T12:29:52.287Z,1.50
2019-06-26T12:32:18.578Z,1.63
2019-06-26T12:34:45.422Z,2.50
2019-06-26T12:37:11.641Z,1.10
2019-06-26T12:39:37.867Z,0.83
2019-06-26T12:42:04.130Z,1.57
2019-06-26T12:44:30.264Z,2.30
2019-06-26T12:46:56.460Z,2.83
2019-06-26T12:49:22.688Z,1.60
2019-06-26T12:51:48.920Z,1.70
2019-06-26T12:54:15.176Z,1.53
2019-06-26T12:56:41.322Z,1.67
2019-06-26T12:59:07.556Z,2.73
2019-06-26T13:01:33.786Z,2.10
2019-06-26T13:04:00.124Z,2.10
2019-06-26T13:06:26.341Z,2.33
2019-06-26T13:08:52.471Z,2.27
2019-06-26T13:11:18.717Z,1.43
2019-06-26T13:13:58.367Z,3.17
2019-06-26T13:16:13.051Z,2.53
2019-06-26T13:18:39.293Z,2.83
2019-06-26T13:21:05.752Z,2.37
2019-06-26T13:23:32.057Z,1.67
2019-06-26T13:25:58.319Z,2.13
2019-06-26T13:28:24.577Z,1.67
2019-06-26T13:30:53.233Z,3.60
2019-06-26T13:33:18.957Z,2.07
2019-06-26T13:35:45.174Z,1.63
2019-06-26T13:38:11.322Z,2.20
2019-06-26T13:40:40.801Z,1.60
2019-06-26T13:43:05.708Z,4.57
2019-06-26T13:45:32.114Z,2.20
2019-06-26T13:47:58.358Z,3.87
2019-06-26T13:50:24.490Z,3.20
2019-06-26T13:52:50.747Z,1.10
2019-06-26T13:55:16.976Z,2.50
2019-06-26T13:57:43.403Z,1.17
2019-06-26T14:00:10.231Z,4.83
2019-06-26T14:02:36.461Z,0.90
2019-06-26T14:05:04.115Z,2.93
2019-06-26T14:07:30.350Z,2.17
2019-06-26T14:09:58.055Z,1.73
2019-06-26T14:12:24.200Z,2.60
2019-06-26T14:14:57.319Z,2.33
2019-06-26T14:17:18.652Z,1.53
2019-06-26T14:19:44.856Z,2.20
2019-06-26T14:22:13.104Z,2.30
2019-06-26T14:24:39.145Z,1.23
2019-06-26T14:27:05.385Z,1.73
2019-06-26T14:29:31.502Z,1.30
2019-06-26T14:31:57.905Z,2.00
2019-06-26T14:34:27.802Z,1.80
2019-06-26T14:36:52.183Z,0.83
2019-06-26T14:39:18.334Z,1.20
2019-06-26T14:41:44.565Z,1.00
2019-06-26T14:44:10.806Z,1.90
2019-06-26T14:46:37.059Z,2.07
2019-06-26T14:49:03.341Z,1.77
2019-06-26T14:51:42.336Z,2.43
2019-06-26T14:53:57.711Z,1.53
2019-06-26T14:56:23.975Z,4.47
2019-06-26T14:58:50.177Z,1.23
2019-06-26T15:01:16.421Z,2.07
2019-06-26T15:03:42.666Z,1.90
2019-06-26T15:06:16.222Z,1.40
2019-06-26T15:08:37.042Z,1.80
2019-06-26T15:11:03.259Z,2.20
2019-06-26T15:13:29.520Z,3.67
2019-06-26T15:15:55.745Z,1.17
2019-06-26T15:18:21.989Z,2.90
2019-06-26T15:20:48.243Z,1.57
2019-06-26T15:23:14.469Z,2.07
2019-06-26T15:25:40.730Z,1.70
2019-06-26T15:28:10.195Z,1.00
2019-06-26T15:30:35.108Z,0.60
2019-06-26T15:33:01.341Z,4.13
2019-06-26T15:35:27.582Z,1.47
2019-06-26T15:37:53.807Z,2.50
2019-06-26T15:40:20.065Z,1.13
2019-06-26T15:42:48.978Z,1.57
2019-06-26T15:45:14.377Z,3.43
2019-06-26T15:47:40.626Z,1.67
2019-06-26T15:50:10.512Z,0.90
2019-06-26T15:52:35.520Z,2.70
2019-06-26T15:55:02.153Z,1.23
2019-06-26T15:57:28.404Z,3.10
2019-06-26T15:59:54.589Z,1.00
2019-06-26T16:02:20.824Z,2.77
2019-06-26T16:04:48.352Z,1.87
2019-06-26T16:07:14.600Z,1.23
2019-06-26T16:09:40.833Z,1.63
2019-06-26T16:12:07.125Z,1.37
2019-06-26T16:14:33.363Z,1.93
2019-06-26T16:17:04.161Z,1.63
2019-06-26T16:19:30.418Z,1.47
2019-06-26T16:21:56.554Z,1.83
2019-06-26T16:24:22.899Z,2.73
2019-06-26T16:26:49.158Z,1.13
2019-06-26T16:29:15.385Z,2.83
2019-06-26T16:31:41.643Z,1.87
2019-06-26T16:34:08.007Z,4.30
2019-06-26T16:36:37.095Z,3.77
2019-06-26T16:39:05.875Z,3.57
2019-06-26T16:41:32.130Z,1.20
2019-06-26T16:43:58.454Z,1.70
2019-06-26T16:46:24.742Z,4.40
2019-06-26T16:48:50.987Z,3.83
2019-06-26T16:51:17.216Z,2.53
2019-06-26T16:53:43.478Z,1.83
2019-06-26T16:56:09.750Z,1.43
2019-06-26T16:58:35.971Z,5.83
2019-06-26T17:01:02.297Z,1.73
2019-06-26T17:03:28.572Z,2.03
2019-06-26T17:05:54.800Z,3.17
2019-06-26T17:08:21.036Z,1.83
2019-06-26T17:10:47.161Z,1.80
2019-06-26T17:13:13.332Z,1.90
2019-06-26T17:15:39.558Z,0.97
2019-06-26T17:18:05.815Z,3.30
2019-06-26T17:20:31.936Z,2.07
2019-06-26T17:23:05.759Z,3.10
2019-06-26T17:25:26.105Z,3.73
2019-06-26T17:27:52.349Z,2.40
2019-06-26T17:30:18.685Z,1.83
2019-06-26T17:32:44.911Z,1.43
2019-06-26T17:35:11.454Z,1.60
2019-06-26T17:37:37.684Z,1.40
2019-06-26T17:40:04.642Z,2.13
2019-06-26T17:42:30.909Z,3.20
2019-06-26T17:44:57.175Z,3.07
2019-06-26T17:47:23.427Z,1.70
2019-06-26T17:49:49.568Z,0.93
2019-06-26T17:52:15.721Z,1.80
2019-06-26T17:54:41.956Z,2.50
2019-06-26T17:57:08.306Z,4.17
2019-06-26T17:59:34.569Z,3.67
2019-06-26T18:02:00.824Z,3.43
2019-06-26T18:04:27.083Z,6.33
2019-06-26T18:06:53.346Z,1.43
2019-06-26T18:09:19.597Z,2.30
2019-06-26T18:11:45.754Z,1.50
2019-06-26T18:14:11.902Z,4.40
2019-06-26T18:16:38.148Z,3.03
2019-06-26T18:19:04.283Z,3.33
2019-06-26T18:21:30.816Z,4.83
2019-06-26T18:23:57.048Z,3.27
2019-06-26T18:26:23.244Z,4.03
2019-06-26T18:28:49.577Z,1.97
2019-06-26T18:31:18.623Z,2.80
2019-06-26T18:33:44.852Z,1.63
2019-06-26T18:36:11.099Z,2.73
2019-06-26T18:38:37.274Z,1.07
2019-06-26T18:41:03.685Z,1.60
2019-06-26T18:43:29.962Z,5.40
2019-06-26T18:45:56.354Z,1.10
2019-06-26T18:48:24.926Z,1.50
2019-06-26T18:50:50.766Z,2.33
2019-06-26T18:53:17.121Z,1.10
2019-06-26T18:55:43.276Z,2.83
2019-06-26T18:58:09.657Z,0.70
2019-06-26T19:00:35.945Z,0.80
2019-06-26T19:03:03.956Z,2.03
2019-06-26T19:05:32.043Z,2.60
2019-06-26T19:07:58.396Z,2.10
2019-06-26T19:10:24.659Z,1.53
2019-06-26T19:12:50.794Z,2.37
2019-06-26T19:15:17.091Z,1.63
2019-06-26T19:17:43.332Z,1.23
2019-06-26T19:20:11.097Z,0.90
2019-06-26T19:22:37.338Z,2.33
2019-06-26T19:25:05.932Z,1.20
2019-06-26T19:27:32.616Z,1.57
2019-06-26T19:30:00.596Z,2.10
2019-06-26T19:32:26.847Z,2.50
2019-06-26T19:34:53.092Z,1.93
2019-06-26T19:37:19.350Z,2.23
2019-06-26T19:39:45.601Z,2.87
2019-06-26T19:42:11.873Z,2.10
2019-06-26T19:44:38.109Z,1.90
2019-06-26T19:47:04.399Z,1.30
2019-06-26T19:49:30.645Z,2.97
2019-06-26T19:51:57.169Z,2.63
2019-06-26T19:54:27.748Z,1.60
2019-06-26T19:56:52.145Z,1.97
2019-06-26T19:59:18.407Z,0.77
2019-06-26T20:01:45.636Z,2.60
2019-06-26T20:04:12.139Z,2.13
2019-06-26T20:06:38.406Z,3.43
2019-06-26T20:09:05.527Z,4.33
2019-06-26T20:11:31.785Z,2.53
2019-06-26T20:13:58.349Z,2.40
2019-06-26T20:16:24.675Z,2.00
2019-06-26T20:18:50.803Z,1.10
2019-06-26T20:21:17.102Z,3.90
2019-06-26T20:23:43.259Z,1.27
2019-06-26T20:26:14.675Z,2.23
2019-06-26T20:28:41.014Z,1.60
2019-06-26T20:31:07.314Z,2.10
2019-06-26T20:33:33.556Z,2.03
2019-06-26T20:35:59.825Z,2.90
2019-06-26T20:38:26.091Z,3.07
2019-06-26T20:40:52.359Z,1.67
2019-06-26T20:43:18.712Z,5.77
2019-06-26T20:45:44.972Z,4.40
2019-06-26T20:48:20.499Z,2.80
2019-06-26T20:50:46.829Z,1.73
2019-06-26T20:53:13.059Z,3.33
2019-06-26T20:55:39.319Z,6.20
2019-06-26T20:58:05.634Z,4.10
2019-06-26T21:00:32.200Z,8.03
2019-06-26T21:02:58.489Z,2.17
2019-06-26T21:05:28.434Z,3.07
2019-06-26T21:07:53.090Z,2.97
2019-06-26T21:10:19.239Z,2.03
2019-06-26T21:12:45.513Z,4.80
2019-06-26T21:15:11.875Z,2.90
2019-06-26T21:17:38.073Z,3.87
2019-06-26T21:20:05.740Z,2.23
2019-06-26T21:22:31.991Z,1.50
2019-06-26T21:24:58.322Z,2.77
2019-06-26T21:27:24.615Z,1.40
2019-06-26T21:29:50.866Z,2.17
2019-06-26T21:32:17.113Z,1.53
2019-06-26T21:34:44.243Z,1.20
2019-06-26T21:37:10.526Z,2.20
2019-06-26T21:39:36.802Z,2.30
2019-06-26T21:42:03.054Z,1.00
2019-06-26T21:44:29.334Z,1.50
2019-06-26T21:46:55.555Z,2.47
2019-06-26T21:49:21.821Z,3.40
2019-06-26T21:51:48.115Z,4.20
2019-06-26T21:54:14.370Z,4.37
2019-06-26T21:56:40.659Z,1.27
2019-06-26T21:59:06.970Z,3.33
2019-06-26T22:01:33.303Z,0.90
2019-06-26T22:03:59.814Z,0.70
2019-06-26T22:06:27.318Z,2.97
2019-06-26T22:08:53.591Z,4.70
2019-06-26T22:11:19.881Z,3.50
2019-06-26T22:13:46.040Z,2.77
2019-06-26T22:16:12.335Z,0.60
2019-06-26T22:18:38.473Z,4.30
2019-06-26T22:21:04.961Z,1.10
2019-06-26T22:23:31.200Z,2.40
2019-06-26T22:25:58.353Z,1.10
2019-06-26T22:28:24.636Z,2.43
2019-06-26T22:30:52.360Z,0.67
2019-06-26T22:33:19.503Z,0.90
2019-06-26T22:35:45.777Z,2.37
2019-06-26T22:38:12.008Z,1.27
2019-06-26T22:40:39.235Z,0.90
2019-06-26T22:43:05.511Z,1.27
2019-06-26T22:45:31.867Z,0.70
2019-06-26T22:47:58.125Z,1.77
2019-06-26T22:50:24.270Z,0.70
2019-06-26T22:52:50.550Z,0.73
2019-06-26T22:55:16.818Z,2.73
2019-06-26T22:57:42.974Z,0.60
2019-06-26T23:00:11.598Z,1.47
2019-06-26T23:02:37.974Z,1.00
2019-06-26T23:05:05.174Z,3.83
2019-06-26T23:07:31.437Z,1.23
2019-06-26T23:09:57.691Z,1.53
2019-06-26T23:12:24.041Z,0.70
2019-06-26T23:14:50.309Z,1.57
2019-06-26T23:17:16.577Z,1.23
2019-06-26T23:19:42.835Z,0.93
2019-06-26T23:22:09.085Z,0.93
2019-06-26T23:24:35.326Z,1.13
2019-06-26T23:27:01.603Z,1.37
2019-06-26T23:29:27.909Z,0.73
2019-06-26T23:31:55.693Z,1.60
2019-06-26T23:34:22.645Z,1.57
2019-06-26T23:36:49.928Z,0.80
2019-06-26T23:39:16.168Z,1.30
2019-06-26T23:41:42.420Z,1.90
2019-06-26T23:44:08.672Z,0.83
2019-06-26T23:46:34.916Z,3.80
2019-06-26T23:49:01.170Z,1.60
2019-06-26T23:51:27.424Z,0.90
2019-06-26T23:53:53.671Z,0.80
2019-06-26T23:56:19.917Z,0.70
2019-06-26T23:58:46.152Z,1.93
